KROX/ROX METAR and TAF weather

Enter ICAO airport designator
Station Type Date Time Source
KROX METAR 2020/01/29 03:35 UTC NOAA

KROX 290335Z AUTO 11004KT 10SM CLR M10/M13 A3014 RMK AO2


Station Type Date Time Source
KROX Decoded METAR 2020/01/29 03:35 UTC NOAA

Roseau, Roseau Municipal Airport/Rudy Billberg Field, MN, United States (KROX) 48-51N 095-42W
Jan 28, 2020 - 10:35 PM EST / 2020.01.29 0335 UTC
Wind: from the ESE (110 degrees) at 5 MPH (4 KT):0
Visibility: 10 mile(s):0
Sky conditions: clear
Temperature: 14 F (-10 C)
Windchill: 6 F (-14 C):1
Dew Point: 8 F (-13 C)
Relative Humidity: 78%
Pressure (altimeter): 30.14 in. Hg (1020 hPa)
ob: KROX 290335Z AUTO 11004KT 10SM CLR M10/M13 A3014 RMK AO2
cycle: 3

Station Type Date Time Source
KROX TAF UTC NOAA

Error!

Example: see airport list